Time;durP1;ratioP1;P1;durP2;ratioP2;P2;SDS_P1;SDS_P2;PMS_P1;PMS_P2;Temp;Humidity;BMP_temperature;BMP_pressure;BME280_temperature;BME280_humidity;BME280_pressure;Samples;Min_cycle;Max_cycle;Signal;HPM_P1;HPM_P2
2022/05/10 00:00:40;;;;;;;6.07;2.97;;;;;;;8.97;74.66;100656.63;5087965;28;20056;-51
2022/05/10 00:03:31;;;;;;;8.25;3.22;;;;;;;8.74;77.80;100647.16;5088039;28;20075;-51
2022/05/10 00:06:17;;;;;;;13.98;4.07;;;;;;;8.66;77.81;100656.75;5087434;28;20043;-50
2022/05/10 00:09:02;;;;;;;12.07;4.53;;;;;;;8.71;77.26;100654.13;5088187;28;20624;-51
2022/05/10 00:11:48;;;;;;;15.95;5.88;;;;;;;8.70;76.72;100650.66;5091249;28;20051;-50
2022/05/10 00:14:32;;;;;;;20.85;6.45;;;;;;;8.57;78.60;100648.97;5091769;28;20379;-50
2022/05/10 00:17:47;;;;;;;25.50;7.82;;;;;;;8.36;81.94;100652.47;5090651;28;20048;-50
2022/05/10 00:20:31;;;;;;;14.70;6.15;;;;;;;8.27;81.65;100642.91;5085906;28;20044;-51
2022/05/10 00:23:16;;;;;;;9.77;4.97;;;;;;;8.22;81.75;100639.44;5087664;28;20047;-50
2022/05/10 00:26:01;;;;;;;13.18;4.72;;;;;;;8.25;80.88;100642.03;5089311;28;20047;-50
2022/05/10 00:28:45;;;;;;;6.82;3.80;;;;;;;8.25;80.54;100641.19;5089845;28;20048;-50
2022/05/10 00:31:30;;;;;;;11.02;4.20;;;;;;;8.26;80.02;100633.38;5091818;28;20067;-51
2022/05/10 00:34:17;;;;;;;8.60;3.67;;;;;;;8.15;82.90;100627.28;5082115;28;20055;-50
2022/05/10 00:37:02;;;;;;;5.75;3.28;;;;;;;8.07;84.34;100627.31;5088505;28;20044;-51
2022/05/10 00:39:49;;;;;;;8.02;4.32;;;;;;;8.08;83.95;100629.03;5088868;28;20048;-50
2022/05/10 00:42:52;;;;;;;14.48;7.03;;;;;;;8.00;86.21;100627.34;5087048;28;20044;-49
2022/05/10 00:45:47;;;;;;;7.43;4.25;;;;;;;7.90;87.13;100624.72;5086801;28;20044;-50
2022/05/10 00:48:45;;;;;;;11.30;4.85;;;;;;;7.93;88.27;100623.88;5086939;28;20040;-50
2022/05/10 00:51:53;;;;;;;7.72;4.10;;;;;;;7.89;89.51;100614.28;5087921;28;20040;-51
2022/05/10 00:55:01;;;;;;;7.35;3.67;;;;;;;7.84;88.06;100606.47;5086418;28;20075;-50
2022/05/10 00:57:56;;;;;;;8.38;3.60;;;;;;;7.76;89.15;100617.78;5090109;28;20082;-50
2022/05/10 01:00:41;;;;;;;10.73;4.18;;;;;;;7.85;86.56;100612.56;5087260;28;20513;-50
2022/05/10 01:03:30;;;;;;;9.23;4.30;;;;;;;7.85;87.46;100609.94;5081993;28;20524;-50
2022/05/10 01:06:24;;;;;;;9.30;4.53;;;;;;;7.84;88.02;100605.63;5086688;28;20137;-51
2022/05/10 01:09:15;;;;;;;11.52;4.43;;;;;;;7.87;87.10;100600.41;5086534;28;20557;-50
2022/05/10 01:12:12;;;;;;;10.95;5.05;;;;;;;7.83;87.35;100599.53;5085355;28;20451;-50
2022/05/10 01:15:06;;;;;;;9.27;4.15;;;;;;;7.82;86.51;100596.91;5089036;28;20070;-50
2022/05/10 01:17:57;;;;;;;11.48;5.00;;;;;;;7.65;89.54;100597.81;5086752;28;20142;-51
2022/05/10 01:20:44;;;;;;;8.32;4.40;;;;;;;7.64;89.37;100590.84;5086760;28;20048;-51
2022/05/10 01:23:51;;;;;;;13.35;5.82;;;;;;;7.68;88.89;100591.72;5084907;28;20105;-50
2022/05/10 01:26:53;;;;;;;11.73;5.90;;;;;;;7.57;90.82;100589.13;5086705;28;20051;-50
2022/05/10 01:29:59;;;;;;;16.87;7.37;;;;;;;7.53;92.87;100587.38;5082606;28;20052;-50
2022/05/10 01:36:03;;;;;;;16.33;8.10;;;;;;;7.57;90.22;100586.53;5085953;28;20101;-50
2022/05/10 01:39:23;;;;;;;13.05;7.30;;;;;;;7.49;91.18;100583.03;5085757;28;20052;-49
2022/05/10 01:42:16;;;;;;;12.23;7.07;;;;;;;7.46;92.83;100581.28;5086924;28;20050;-50
2022/05/10 01:45:07;;;;;;;13.10;6.45;;;;;;;7.48;91.45;100576.97;5093207;28;20404;-51
2022/05/10 01:47:58;;;;;;;10.60;5.95;;;;;;;7.44;93.48;100579.53;5086147;28;20068;-50
2022/05/10 01:50:47;;;;;;;10.52;6.43;;;;;;;7.40;93.35;100575.22;5089144;28;20060;-50
2022/05/10 01:53:34;;;;;;;11.27;5.13;;;;;;;7.39;92.67;100576.09;5089127;28;20044;-51
2022/05/10 01:56:24;;;;;;;11.65;4.90;;;;;;;7.38;91.80;100562.19;5086801;28;20067;-50
2022/05/10 01:59:10;;;;;;;21.77;5.30;;;;;;;7.34;93.06;100567.38;5084671;28;20072;-51
2022/05/10 02:01:56;;;;;;;8.75;4.55;;;;;;;7.40;91.67;100563.03;5082582;28;20052;-50
2022/05/10 02:04:44;;;;;;;7.63;3.88;;;;;;;7.40;92.12;100563.03;5087215;28;20044;-50
2022/05/10 02:07:30;;;;;;;10.18;5.07;;;;;;;7.24;93.19;100563.91;5092286;28;20044;-51
2022/05/10 02:10:24;;;;;;;12.15;5.57;;;;;;;7.20;95.17;100565.66;5087329;28;20040;-50
2022/05/10 02:13:19;;;;;;;10.65;5.88;;;;;;;7.24;95.43;100561.31;5092097;28;20192;-50
2022/05/10 02:16:20;;;;;;;10.13;5.00;;;;;;;7.12;96.53;100564.78;5085224;28;20090;-50
2022/05/10 02:19:10;;;;;;;8.10;4.88;;;;;;;7.11;97.37;100557.81;5086255;28;20048;-50
2022/05/10 02:22:10;;;;;;;11.70;5.07;;;;;;;7.11;97.31;100560.41;5088735;28;20124;-50
2022/05/10 02:24:59;;;;;;;8.52;4.63;;;;;;;7.12;96.57;100563.94;5089520;28;20626;-49
2022/05/10 02:27:53;;;;;;;11.95;5.28;;;;;;;7.11;95.19;100557.81;5084888;28;20147;-50
2022/05/10 02:30:38;;;;;;;12.73;5.03;;;;;;;7.01;96.79;100556.94;5084604;28;20029;-50
2022/05/10 02:33:23;;;;;;;9.77;5.15;;;;;;;6.97;98.15;100563.00;5086518;28;20061;-50
2022/05/10 02:36:07;;;;;;;13.95;5.30;;;;;;;6.97;97.87;100559.56;5083385;28;20075;-49
2022/05/10 02:38:51;;;;;;;9.55;4.90;;;;;;;6.86;99.74;100561.25;5087092;28;20113;-51
2022/05/10 02:41:36;;;;;;;11.02;5.60;;;;;;;6.79;100.00;100553.44;5084714;28;20054;-50
2022/05/10 02:44:21;;;;;;;11.88;5.22;;;;;;;6.77;100.00;100552.56;5084409;28;20032;-51
2022/05/10 02:47:08;;;;;;;13.38;5.28;;;;;;;6.81;100.00;100545.63;5084560;28;20101;-49
2022/05/10 02:49:53;;;;;;;12.10;5.43;;;;;;;6.60;100.00;100546.47;5081949;28;20085;-50
2022/05/10 02:52:39;;;;;;;9.32;4.20;;;;;;;6.64;100.00;100549.94;5084530;28;20051;-49
2022/05/10 02:55:51;;;;;;;9.00;4.47;;;;;;;6.52;100.00;100546.41;5085282;28;20109;-51
2022/05/10 02:58:57;;;;;;;12.52;4.82;;;;;;;6.66;100.00;100546.47;5087816;28;20040;-50
2022/05/10 03:02:00;;;;;;;7.18;4.57;;;;;;;6.54;100.00;100544.69;5083004;28;20036;-50
2022/05/10 03:04:51;;;;;;;10.77;4.03;;;;;;;6.64;100.00;100535.19;5082693;28;20458;-49
2022/05/10 03:07:35;;;;;;;8.98;4.53;;;;;;;6.55;100.00;100548.16;5083986;28;20044;-51
2022/05/10 03:10:20;;;;;;;10.57;4.47;;;;;;;6.65;100.00;100543.84;5086886;28;20040;-50
2022/05/10 03:13:05;;;;;;;9.48;5.10;;;;;;;6.67;100.00;100536.94;5083043;28;20039;-51
2022/05/10 03:15:49;;;;;;;7.97;4.18;;;;;;;6.63;100.00;100537.75;5083664;28;20667;-49
2022/05/10 03:18:34;;;;;;;10.27;5.18;;;;;;;6.59;100.00;100544.69;5083781;28;20105;-50
2022/05/10 03:21:20;;;;;;;13.18;4.78;;;;;;;6.59;100.00;100536.03;5085255;28;20114;-50
2022/05/10 03:24:05;;;;;;;8.65;5.03;;;;;;;6.56;100.00;100539.47;5091428;28;20044;-51
2022/05/10 03:26:52;;;;;;;7.10;4.40;;;;;;;6.68;100.00;100536.91;5087384;28;20055;-51
2022/05/10 03:29:39;;;;;;;8.38;5.13;;;;;;;6.60;100.00;100530.84;5089209;28;20063;-49
2022/05/10 03:32:23;;;;;;;13.20;5.20;;;;;;;6.62;100.00;100536.03;5087898;28;20101;-50
2022/05/10 03:35:08;;;;;;;11.70;4.65;;;;;;;6.72;100.00;100541.25;5087200;28;20040;-50
2022/05/10 03:37:52;;;;;;;10.90;4.15;;;;;;;6.66;100.00;100536.06;5089349;28;20112;-49
2022/05/10 03:40:36;;;;;;;13.45;4.65;;;;;;;6.70;100.00;100535.19;5087148;28;20557;-50
2022/05/10 03:43:21;;;;;;;7.35;4.40;;;;;;;6.77;100.00;100536.09;5088436;28;20048;-50
2022/05/10 03:46:06;;;;;;;13.32;5.18;;;;;;;6.81;100.00;100540.41;5088510;28;20063;-51
2022/05/10 03:48:50;;;;;;;13.45;4.88;;;;;;;6.88;100.00;100528.28;5087736;28;20051;-50
2022/05/10 03:51:35;;;;;;;12.40;5.45;;;;;;;6.78;100.00;100535.19;5087876;28;20100;-50
2022/05/10 03:54:24;;;;;;;11.13;5.75;;;;;;;6.85;100.00;100533.47;5087797;28;20048;-50
2022/05/10 03:57:09;;;;;;;8.25;4.53;;;;;;;6.90;100.00;100529.16;5087480;28;20040;-51
2022/05/10 03:59:53;;;;;;;10.55;5.03;;;;;;;6.89;100.00;100530.00;5093521;28;20101;-50
2022/05/10 04:02:38;;;;;;;12.32;4.93;;;;;;;6.99;100.00;100530.03;5090078;28;20097;-50
2022/05/10 04:05:25;;;;;;;13.20;6.28;;;;;;;7.08;100.00;100525.69;5088377;28;20047;-50
2022/05/10 04:08:09;;;;;;;12.05;5.18;;;;;;;7.20;100.00;100525.69;5085941;28;20047;-51
2022/05/10 04:10:54;;;;;;;12.88;5.55;;;;;;;7.42;100.00;100524.81;5095174;28;20131;-49
2022/05/10 04:13:41;;;;;;;14.82;5.35;;;;;;;8.22;100.00;100522.00;5086476;28;20113;-50
2022/05/10 04:16:26;;;;;;;16.73;5.65;;;;;;;8.85;92.37;100525.19;5088009;28;20060;-50
2022/05/10 04:19:10;;;;;;;13.25;6.28;;;;;;;9.67;87.83;100522.75;5087720;28;20054;-51
2022/05/10 04:21:55;;;;;;;13.95;5.47;;;;;;;10.51;87.33;100513.09;5089407;28;20056;-51
2022/05/10 04:24:39;;;;;;;15.07;5.55;;;;;;;10.83;80.67;100517.88;5086913;28;20078;-50
2022/05/10 04:27:24;;;;;;;8.70;5.47;;;;;;;11.52;76.52;100514.13;5086774;28;20063;-50
2022/05/10 04:30:09;;;;;;;11.27;5.85;;;;;;;12.38;72.32;100517.72;5087495;28;20036;-51
2022/05/10 04:32:54;;;;;;;8.35;4.78;;;;;;;12.89;71.07;100512.22;5086709;28;20040;-51
2022/05/10 04:35:38;;;;;;;11.43;5.45;;;;;;;12.70;67.84;100509.13;5088160;28;20050;-50
2022/05/10 04:38:23;;;;;;;13.68;5.63;;;;;;;12.97;65.91;100512.91;5090725;28;20059;-50
2022/05/10 04:41:26;;;;;;;13.90;6.03;;;;;;;13.86;64.95;100518.56;5087358;28;20482;-51
2022/05/10 04:44:11;;;;;;;11.43;5.40;;;;;;;14.07;61.18;100514.47;5085020;28;20040;-50
2022/05/10 04:46:55;;;;;;;17.90;5.40;;;;;;;14.15;61.92;100514.25;5083392;28;20052;-51
2022/05/10 04:49:40;;;;;;;13.07;5.70;;;;;;;14.69;59.49;100516.22;5084104;28;20055;-51
2022/05/10 04:52:24;;;;;;;11.35;5.47;;;;;;;15.08;60.34;100507.91;5083594;28;20097;-51
2022/05/10 04:55:10;;;;;;;9.75;5.65;;;;;;;15.57;58.33;100506.28;5083378;28;20630;-52
2022/05/10 04:57:54;;;;;;;9.77;5.88;;;;;;;15.22;54.43;100508.34;5083696;28;20159;-51
2022/05/10 05:00:40;;;;;;;10.38;4.97;;;;;;;16.03;54.68;100502.03;5084293;28;20507;-51
2022/05/10 05:03:25;;;;;;;11.95;5.35;;;;;;;15.98;54.42;100509.25;5085317;28;20498;-51
2022/05/10 05:06:09;;;;;;;10.35;5.10;;;;;;;16.11;53.37;100513.19;5083940;28;20099;-50
2022/05/10 05:08:55;;;;;;;8.48;4.78;;;;;;;17.22;53.14;100501.81;5085210;28;20055;-51
2022/05/10 05:11:40;;;;;;;8.48;4.47;;;;;;;17.61;49.01;100506.34;5086282;28;20048;-50
2022/05/10 05:14:24;;;;;;;9.95;4.93;;;;;;;17.80;50.30;100507.31;5085734;28;20113;-51
2022/05/10 05:17:09;;;;;;;10.05;5.20;;;;;;;17.58;48.06;100514.44;5089859;28;20059;-52
2022/05/10 05:19:53;;;;;;;8.77;4.93;;;;;;;18.35;48.65;100517.22;5084748;28;20056;-51
2022/05/10 05:22:39;;;;;;;12.45;5.45;;;;;;;17.58;46.90;100515.31;5084359;28;20188;-52
2022/05/10 05:25:23;;;;;;;9.98;4.78;;;;;;;18.69;47.24;100519.19;5084022;28;20741;-51
2022/05/10 05:28:09;;;;;;;11.50;4.38;;;;;;;19.13;45.56;100517.03;5083409;28;20112;-51
2022/05/10 05:30:53;;;;;;;8.32;4.82;;;;;;;19.54;45.07;100524.75;5084383;28;20048;-50
2022/05/10 05:33:38;;;;;;;8.63;4.57;;;;;;;19.88;43.79;100523.03;5086153;28;20101;-51
2022/05/10 05:36:23;;;;;;;7.40;4.18;;;;;;;20.25;42.42;100519.28;5084369;28;20051;-51
2022/05/10 05:39:08;;;;;;;7.88;4.15;;;;;;;20.53;41.74;100516.00;5084424;28;20108;-51
2022/05/10 05:41:54;;;;;;;8.73;5.47;;;;;;;18.77;42.29;100518.84;5085533;28;20060;-51
2022/05/10 05:44:41;;;;;;;7.55;5.18;;;;;;;19.90;41.90;100515.84;5088923;28;20071;-51
2022/05/10 05:47:27;;;;;;;7.90;5.28;;;;;;;20.23;42.50;100521.16;5085787;28;20151;-51
2022/05/10 05:50:15;;;;;;;8.90;4.68;;;;;;;20.79;41.29;100516.34;5086222;28;20048;-51
2022/05/10 05:53:00;;;;;;;8.15;4.35;;;;;;;21.14;40.89;100511.69;5086640;28;20120;-52
2022/05/10 05:55:48;;;;;;;7.82;4.20;;;;;;;21.43;39.05;100520.66;5086806;28;20059;-51
2022/05/10 05:58:33;;;;;;;9.38;3.95;;;;;;;21.64;37.67;100518.56;5087837;28;20044;-52
2022/05/10 06:01:18;;;;;;;8.90;3.72;;;;;;;21.12;36.79;100518.88;5085496;28;20070;-52
2022/05/10 06:04:05;;;;;;;10.38;5.57;;;;;;;21.28;38.73;100516.19;5087755;28;20044;-52
2022/05/10 06:09:09;;;;;;;7.85;1.90;;;;;;;16.91;47.66;100526.03;5140607;27;20180;-55
2022/05/10 06:12:03;;;;;;;3.65;1.85;;;;;;;17.31;47.35;100525.28;5122590;27;20054;-54
2022/05/10 06:14:51;;;;;;;3.33;1.50;;;;;;;17.59;47.14;100537.38;5139381;27;20484;-54
2022/05/10 06:17:44;;;;;;;3.92;2.08;;;;;;;17.17;47.90;100528.50;5139431;27;20043;-53
2022/05/10 06:20:32;;;;;;;5.13;2.15;;;;;;;17.34;45.50;100517.19;5095734;27;20059;-54
2022/05/10 06:23:17;;;;;;;5.47;3.13;;;;;;;17.69;45.87;100531.59;5141080;27;20050;-54
2022/05/10 06:26:05;;;;;;;8.18;2.00;;;;;;;18.24;44.62;100522.19;5140620;27;20050;-56
2022/05/10 06:28:51;;;;;;;7.57;2.35;;;;;;;18.27;44.02;100520.25;5114223;27;20066;-54
2022/05/10 06:31:45;;;;;;;5.30;2.03;;;;;;;17.61;45.55;100523.09;5126248;27;20461;-55
2022/05/10 06:34:31;;;;;;;2.70;1.73;;;;;;;18.50;42.72;100508.56;5135576;27;21567;-53
2022/05/10 06:40:22;;;;;;;5.05;2.35;;;;;;;18.83;42.75;100513.25;5134912;27;20045;-54
2022/05/10 06:43:12;;;;;;;4.60;2.15;;;;;;;18.69;43.62;100514.72;5139626;27;20135;-53
2022/05/10 06:46:20;;;;;;;5.32;2.03;;;;;;;18.70;43.55;100507.63;5137240;27;20045;-53
2022/05/10 06:49:20;;;;;;;3.30;1.67;;;;;;;19.10;43.65;100511.88;5125815;27;20760;-56
2022/05/10 06:52:17;;;;;;;4.40;2.67;;;;;;;18.55;42.82;100506.53;5140538;27;20055;-56
2022/05/10 06:55:05;;;;;;;4.75;1.60;;;;;;;19.36;41.83;100494.66;5138865;27;20056;-55
2022/05/10 06:57:51;;;;;;;7.82;4.05;;;;;;;19.55;40.79;100494.56;5123716;27;20043;-54
2022/05/10 07:00:39;;;;;;;6.30;2.13;;;;;;;19.35;41.34;100495.59;5142579;27;20050;-55
2022/05/10 07:03:34;;;;;;;5.15;1.83;;;;;;;19.06;41.38;100490.88;5139766;27;20162;-56
2022/05/10 07:06:24;;;;;;;4.07;1.90;;;;;;;19.43;41.07;100487.22;5122873;27;20043;-56
2022/05/10 07:09:12;;;;;;;6.03;2.13;;;;;;;19.58;40.28;100496.22;5137827;27;20050;-55
2022/05/10 07:11:59;;;;;;;2.88;1.13;;;;;;;20.30;40.33;100489.78;5139696;27;20512;-56
2022/05/10 07:14:45;;;;;;;4.00;1.92;;;;;;;20.65;39.05;100487.00;5106344;27;20054;-56
2022/05/10 07:17:32;;;;;;;5.90;2.13;;;;;;;19.85;39.99;100478.84;5139335;27;20052;-57
2022/05/10 07:20:21;;;;;;;5.40;1.75;;;;;;;20.60;38.79;100483.72;5127584;27;20058;-54
2022/05/10 07:23:07;;;;;;;6.97;1.77;;;;;;;20.21;39.57;100483.13;5128347;27;20395;-57
2022/05/10 07:25:54;;;;;;;3.40;2.20;;;;;;;20.90;38.42;100476.69;5113454;27;20051;-57
2022/05/10 07:28:38;;;;;;;5.88;1.80;;;;;;;20.93;38.00;100475.66;5124297;27;20069;-56
2022/05/10 07:31:24;;;;;;;4.88;1.90;;;;;;;21.41;37.65;100477.25;5125992;27;20059;-53
2022/05/10 07:34:11;;;;;;;4.45;1.92;;;;;;;21.53;37.03;100469.50;5129591;27;20169;-57
2022/05/10 07:37:03;;;;;;;6.50;1.55;;;;;;;20.90;37.68;100459.84;5115275;27;20047;-54
2022/05/10 07:39:48;;;;;;;4.85;2.03;;;;;;;21.46;37.64;100459.19;5102004;27;20050;-54
2022/05/10 07:42:36;;;;;;;6.75;2.38;;;;;;;21.47;39.08;100466.22;5115600;27;20088;-56
2022/05/10 07:45:29;;;;;;;5.70;1.85;;;;;;;22.51;37.37;100460.75;5090738;27;20401;-55
2022/05/10 07:48:17;;;;;;;6.40;2.20;;;;;;;22.21;37.63;100461.75;5105083;27;20487;-55
2022/05/10 07:51:03;;;;;;;6.57;1.55;;;;;;;22.83;35.48;100456.81;5126723;27;20063;-57
2022/05/10 07:53:48;;;;;;;5.85;2.20;;;;;;;22.97;36.14;100455.09;5128949;27;20130;-55
2022/05/10 07:56:37;;;;;;;5.70;1.73;;;;;;;22.96;35.18;100451.56;5111431;27;20051;-56
2022/05/10 07:59:23;;;;;;;4.93;1.48;;;;;;;22.25;36.58;100455.25;5108725;27;20043;-57
2022/05/10 08:02:08;;;;;;;9.32;2.22;;;;;;;23.56;35.44;100448.38;5109506;27;20055;-54
2022/05/10 08:04:56;;;;;;;6.20;2.30;;;;;;;22.06;37.57;100454.66;5098514;27;20051;-54
2022/05/10 08:07:45;;;;;;;9.65;2.17;;;;;;;22.53;37.27;100451.69;5129214;27;20035;-56
2022/05/10 08:10:35;;;;;;;5.82;2.03;;;;;;;21.62;37.93;100456.47;5110597;27;20050;-57
2022/05/10 08:13:27;;;;;;;3.97;1.70;;;;;;;22.12;37.15;100451.63;5097284;27;20545;-56
2022/05/10 08:16:13;;;;;;;5.03;1.60;;;;;;;22.29;36.97;100451.44;5129339;27;20051;-57
2022/05/10 08:18:58;;;;;;;3.90;1.58;;;;;;;21.72;38.26;100443.44;5112346;27;20051;-55
2022/05/10 08:21:55;;;;;;;4.22;1.50;;;;;;;22.48;36.84;100448.44;5124843;27;20074;-54
2022/05/10 08:24:42;;;;;;;3.75;1.38;;;;;;;22.21;37.36;100442.22;5108859;27;20216;-54
2022/05/10 08:27:31;;;;;;;8.40;1.73;;;;;;;22.78;38.10;100450.06;5093157;27;20071;-55
2022/05/10 08:30:23;;;;;;;3.67;1.30;;;;;;;22.50;36.21;100449.22;5104199;27;20035;-56
2022/05/10 08:33:10;;;;;;;6.13;1.60;;;;;;;22.86;35.44;100440.59;5119437;27;20047;-55
2022/05/10 08:35:57;;;;;;;8.32;1.83;;;;;;;21.47;36.55;100450.25;5101646;27;20050;-56
2022/05/10 08:38:43;;;;;;;5.85;1.38;;;;;;;23.13;36.14;100436.22;5118095;27;20696;-56
2022/05/10 08:41:38;;;;;;;4.40;1.67;;;;;;;22.75;36.24;100435.13;5107387;27;20052;-56
2022/05/10 08:44:38;;;;;;;2.92;1.48;;;;;;;22.50;34.97;100432.34;5096584;27;20058;-55
2022/05/10 08:47:30;;;;;;;4.22;1.15;;;;;;;22.84;36.01;100425.63;5093724;27;20050;-56
2022/05/10 08:50:27;;;;;;;6.82;1.40;;;;;;;23.03;34.65;100410.13;5120659;27;20040;-55
2022/05/10 08:53:12;;;;;;;4.35;1.83;;;;;;;22.31;35.10;100416.66;5106406;27;20039;-55
2022/05/10 08:56:21;;;;;;;5.72;1.40;;;;;;;23.15;36.13;100410.28;5104943;27;20082;-55
2022/05/10 08:59:40;;;;;;;3.17;1.13;;;;;;;22.70;34.65;100413.22;5124009;27;20063;-55
2022/05/10 09:02:49;;;;;;;7.82;1.40;;;;;;;23.26;33.60;100415.72;5123452;27;20055;-55
2022/05/10 09:05:41;;;;;;;3.05;1.17;;;;;;;23.51;31.85;100414.91;5105902;27;20051;-56
2022/05/10 09:09:06;;;;;;;3.53;1.50;;;;;;;22.90;32.42;100416.38;5122967;27;20035;-56
2022/05/10 09:12:03;;;;;;;2.33;0.70;;;;;;;23.97;32.12;100407.19;5123101;27;20058;-56
2022/05/10 09:15:09;;;;;;;5.80;1.30;;;;;;;23.14;31.63;100408.53;5127488;27;20042;-54
2022/05/10 09:17:53;;;;;;;2.83;0.80;;;;;;;23.48;33.27;100417.78;5108269;27;20153;-54
2022/05/10 09:20:45;;;;;;;4.55;0.90;;;;;;;23.98;32.15;100405.38;5125288;27;20043;-54
2022/05/10 09:23:54;;;;;;;1.80;0.90;;;;;;;23.63;31.10;100407.84;5127552;27;20082;-56
2022/05/10 09:26:46;;;;;;;6.65;1.42;;;;;;;23.24;32.56;100406.97;5102718;27;20051;-57
2022/05/10 09:29:34;;;;;;;5.82;1.02;;;;;;;23.42;32.68;100394.16;5110930;27;20065;-56
2022/05/10 09:35:50;;;;;;;2.28;0.85;;;;;;;24.22;29.75;100381.34;5111850;27;20550;-56
2022/05/10 09:38:47;;;;;;;3.33;1.35;;;;;;;24.53;31.03;100379.97;5124710;27;20047;-55
2022/05/10 09:41:45;;;;;;;2.63;1.10;;;;;;;24.38;30.99;100381.94;5123841;27;20062;-56
2022/05/10 09:44:34;;;;;;;3.22;1.00;;;;;;;23.97;32.03;100382.25;5110253;27;20066;-55
2022/05/10 09:47:21;;;;;;;2.70;1.10;;;;;;;24.52;32.05;100370.25;5126286;27;20054;-54
2022/05/10 09:50:19;;;;;;;2.58;1.08;;;;;;;24.70;31.67;100368.88;5126907;27;20225;-55
2022/05/10 09:53:27;;;;;;;3.70;1.13;;;;;;;24.84;31.64;100366.97;5112144;27;20104;-54
2022/05/10 09:56:29;;;;;;;10.10;1.40;;;;;;;24.62;30.62;100359.69;5110463;27;20051;-55
2022/05/10 09:59:24;;;;;;;4.22;1.30;;;;;;;24.79;31.03;100353.91;5111025;27;20127;-54
2022/05/10 10:02:13;;;;;;;2.50;1.05;;;;;;;24.53;32.01;100360.38;5110032;27;20092;-57
2022/05/10 10:04:59;;;;;;;6.63;1.10;;;;;;;24.44;30.62;100351.22;5097526;28;20054;-54
2022/05/10 10:07:55;;;;;;;2.28;0.90;;;;;;;24.91;31.78;100342.28;5121042;27;20043;-54
2022/05/10 10:10:40;;;;;;;4.32;0.80;;;;;;;25.23;30.10;100335.44;5105064;28;20078;-56
2022/05/10 10:13:37;;;;;;;5.45;1.20;;;;;;;25.07;31.71;100341.94;5105649;28;20074;-57
2022/05/10 10:16:24;;;;;;;1.40;0.85;;;;;;;25.11;32.56;100330.00;5118656;27;20043;-56
2022/05/10 10:19:30;;;;;;;1.77;0.90;;;;;;;24.66;30.44;100334.38;5108727;28;20050;-55
2022/05/10 10:22:21;;;;;;;2.80;0.95;;;;;;;24.24;30.16;100328.56;5104652;28;20050;-57
2022/05/10 10:25:34;;;;;;;2.13;0.70;;;;;;;24.81;29.38;100319.84;5096041;28;20147;-55
2022/05/10 10:29:07;;;;;;;5.28;1.50;;;;;;;24.29;30.87;100321.06;5126230;27;20044;-56
2022/05/10 10:32:00;;;;;;;2.35;0.80;;;;;;;24.70;30.36;100318.00;5094810;27;20047;-57
2022/05/10 10:35:04;;;;;;;2.42;0.98;;;;;;;25.66;30.00;100300.72;5126430;28;20497;-54
2022/05/10 10:37:55;;;;;;;3.40;1.13;;;;;;;25.07;29.51;100300.91;5124347;27;20492;-56
2022/05/10 10:40:43;;;;;;;4.03;0.93;;;;;;;25.67;30.28;100296.19;5124220;28;20035;-55
2022/05/10 10:43:38;;;;;;;1.98;1.10;;;;;;;25.45;29.10;100287.22;5125792;27;20047;-56
2022/05/10 10:46:29;;;;;;;6.07;1.38;;;;;;;24.78;28.69;100287.94;5124432;28;20047;-56
2022/05/10 10:49:19;;;;;;;1.57;0.90;;;;;;;24.77;31.16;100291.59;5125308;27;21089;-55
2022/05/10 10:52:05;;;;;;;1.77;0.93;;;;;;;24.97;31.96;100276.66;5122722;28;20039;-54
2022/05/10 10:54:51;;;;;;;2.95;0.88;;;;;;;25.61;31.04;100274.28;5121719;27;20052;-55
2022/05/10 10:58:11;;;;;;;2.28;1.40;;;;;;;25.22;30.25;100277.44;5115471;27;20130;-56
2022/05/10 11:01:17;;;;;;;5.90;1.33;;;;;;;25.27;31.36;100269.88;5129159;27;20104;-55
2022/05/10 11:04:23;;;;;;;4.80;1.25;;;;;;;25.57;30.38;100263.91;5126751;27;20035;-56
2022/05/10 11:07:23;;;;;;;1.38;1.00;;;;;;;25.07;31.01;100252.69;5126937;27;20042;-54
2022/05/10 11:10:23;;;;;;;6.18;1.38;;;;;;;24.70;30.56;100263.59;5125459;27;20054;-56
2022/05/10 11:13:14;;;;;;;4.57;1.27;;;;;;;25.39;29.57;100256.38;5127036;27;20035;-58
2022/05/10 11:16:01;;;;;;;3.67;1.05;;;;;;;25.03;29.81;100241.34;5128876;27;20051;-56
2022/05/10 11:18:53;;;;;;;5.65;1.13;;;;;;;25.52;30.93;100239.31;5123444;27;20043;-57
2022/05/10 11:22:07;;;;;;;4.78;1.40;;;;;;;25.28;29.90;100229.56;5109870;27;20042;-55
2022/05/10 11:25:11;;;;;;;6.32;1.25;;;;;;;26.17;29.18;100226.84;5105991;27;20051;-55
2022/05/10 11:28:34;;;;;;;4.95;2.08;;;;;;;25.46;29.04;100229.06;5104325;27;20050;-56
2022/05/10 11:31:39;;;;;;;4.93;1.13;;;;;;;24.85;29.44;100224.88;5105047;27;20736;-55
2022/05/10 11:34:45;;;;;;;1.95;0.85;;;;;;;25.11;29.91;100236.22;5106681;27;20042;-54
2022/05/10 11:37:36;;;;;;;3.42;0.93;;;;;;;25.22;30.14;100231.88;5125867;27;20043;-55
2022/05/10 11:40:51;;;;;;;2.33;0.90;;;;;;;25.07;29.79;100226.72;5127506;27;20063;-56
2022/05/10 11:44:08;;;;;;;4.75;0.75;;;;;;;25.77;28.75;100211.31;5125784;27;20115;-55
2022/05/10 11:47:04;;;;;;;3.85;0.98;;;;;;;25.44;30.08;100217.59;5126493;27;20043;-56
2022/05/10 11:50:09;;;;;;;1.92;0.70;;;;;;;24.88;28.47;100208.56;5096596;27;20041;-55
2022/05/10 11:52:59;;;;;;;2.28;1.20;;;;;;;25.98;29.80;100203.38;5126273;27;20050;-56
2022/05/10 11:55:59;;;;;;;3.45;0.85;;;;;;;26.13;29.69;100188.69;5122085;27;20047;-57
2022/05/10 11:58:44;;;;;;;2.22;0.95;;;;;;;25.92;30.28;100188.63;5119503;27;20043;-56
2022/05/10 12:01:45;;;;;;;1.42;0.73;;;;;;;25.53;30.32;100187.38;5118959;27;20055;-55
2022/05/10 12:04:35;;;;;;;3.20;1.10;;;;;;;25.37;29.65;100188.59;5128126;27;20043;-56
2022/05/10 12:07:19;;;;;;;1.33;0.50;;;;;;;25.83;29.34;100179.50;5126886;27;20055;-55
2022/05/10 12:10:07;;;;;;;1.73;0.85;;;;;;;25.83;29.90;100182.19;5128732;27;20520;-56
2022/05/10 12:12:51;;;;;;;3.28;0.90;;;;;;;24.84;30.66;100177.66;5125510;27;20043;-56
2022/05/10 12:21:57;;;;;;;1.10;0.70;;;;;;;25.31;30.86;100162.28;5127904;27;20043;-54
2022/05/10 12:24:46;;;;;;;5.35;1.38;;;;;;;25.39;30.27;100173.25;5128938;27;20047;-55
2022/05/10 12:27:33;;;;;;;2.88;0.77;;;;;;;25.63;30.10;100165.03;5123223;27;20118;-55
2022/05/10 12:30:31;;;;;;;4.30;0.88;;;;;;;26.16;30.66;100161.59;5125247;27;20058;-55
2022/05/10 12:33:37;;;;;;;3.05;1.20;;;;;;;25.50;30.66;100153.63;5124882;27;20043;-57
2022/05/10 12:36:33;;;;;;;3.80;0.77;;;;;;;25.73;30.80;100142.81;5121715;27;20131;-56
2022/05/10 12:39:21;;;;;;;2.60;0.90;;;;;;;25.93;31.26;100139.34;5116510;27;20401;-57
2022/05/10 12:42:38;;;;;;;1.75;0.50;;;;;;;25.36;30.80;100137.81;5118231;27;20051;-56
2022/05/10 12:45:40;;;;;;;4.78;0.93;;;;;;;25.78;30.94;100133.41;5120502;27;20503;-54
2022/05/10 12:48:50;;;;;;;5.18;1.05;;;;;;;25.54;31.15;100128.25;5115926;27;20035;-55
2022/05/10 12:51:44;;;;;;;3.58;0.75;;;;;;;25.55;31.99;100127.28;5116060;27;20088;-56
2022/05/10 12:54:39;;;;;;;4.28;0.60;;;;;;;25.85;30.71;100118.53;5125151;27;20059;-56
2022/05/10 12:57:41;;;;;;;1.60;0.77;;;;;;;25.71;29.38;100104.56;5126319;27;20093;-54
2022/05/10 13:00:33;;;;;;;6.20;0.75;;;;;;;26.07;30.33;100101.47;5122874;27;20051;-53
2022/05/10 13:03:25;;;;;;;1.33;0.73;;;;;;;26.21;29.54;100102.97;5117530;27;20497;-54
2022/05/10 13:06:19;;;;;;;;;;;;;;;24.97;30.80;100090.97;5123000;27;20055;-55
2022/05/10 13:09:37;;;;;;;4.53;0.95;;;;;;;24.90;30.88;100095.97;5122336;27;19919;-55
2022/05/10 13:12:25;;;;;;;2.35;0.90;;;;;;;25.02;30.59;100088.75;5123583;27;20039;-55
2022/05/10 13:15:13;;;;;;;1.42;0.75;;;;;;;25.44;32.63;100089.78;5102726;27;20047;-56
2022/05/10 13:17:59;;;;;;;4.72;0.82;;;;;;;25.63;31.17;100081.91;5117730;27;20518;-56
2022/05/10 13:20:49;;;;;;;3.38;0.98;;;;;;;25.91;32.34;100078.78;5123386;27;20122;-56
2022/05/10 13:23:34;;;;;;;2.72;0.90;;;;;;;24.76;32.24;100085.47;5123838;27;20047;-55
2022/05/10 13:26:18;;;;;;;1.88;0.80;;;;;;;25.10;31.20;100076.44;5120821;27;20522;-55
2022/05/10 13:29:03;;;;;;;2.22;0.65;;;;;;;24.75;30.29;100070.41;5119875;27;20183;-55
2022/05/10 13:31:47;;;;;;;2.03;0.70;;;;;;;24.86;30.93;100065.91;5112906;27;20102;-55
2022/05/10 13:34:32;;;;;;;6.00;1.10;;;;;;;25.01;31.11;100062.94;5116883;27;20062;-53